sensor_id;sensor_type;location;lat;lon;timestamp;P1;durP1;ratioP1;P2;durP2;ratioP2
78346;SDS011;67803;41.330;69.282;2023-03-30T03:14:33;17.05;;;8.93;;
78346;SDS011;67803;41.330;69.282;2023-03-30T03:17:04;15.68;;;8.52;;
78346;SDS011;67803;41.330;69.282;2023-03-30T03:19:35;17.45;;;8.43;;
78346;SDS011;67803;41.330;69.282;2023-03-30T03:22:06;18.73;;;9.18;;
78346;SDS011;67803;41.330;69.282;2023-03-30T03:24:36;23.77;;;9.88;;
78346;SDS011;67803;41.330;69.282;2023-03-30T03:27:08;23.08;;;10.18;;
78346;SDS011;67803;41.330;69.282;2023-03-30T03:29:38;24.13;;;10.48;;
78346;SDS011;67803;41.330;69.282;2023-03-30T03:32:09;25.10;;;10.10;;
78346;SDS011;67803;41.330;69.282;2023-03-30T03:34:40;26.35;;;11.20;;
78346;SDS011;67803;41.330;69.282;2023-03-30T03:37:13;30.40;;;11.90;;
78346;SDS011;67803;41.330;69.282;2023-03-30T03:39:44;27.95;;;10.60;;
78346;SDS011;67803;41.330;69.282;2023-03-30T03:42:15;24.33;;;11.00;;
78346;SDS011;67803;41.330;69.282;2023-03-30T03:44:45;28.77;;;11.20;;
78346;SDS011;67803;41.330;69.282;2023-03-30T03:47:16;26.38;;;11.75;;
78346;SDS011;67803;41.330;69.282;2023-03-30T03:49:47;24.48;;;11.65;;
78346;SDS011;67803;41.330;69.282;2023-03-30T03:52:17;29.40;;;11.65;;
78346;SDS011;67803;41.330;69.282;2023-03-30T03:54:48;25.40;;;11.32;;
78346;SDS011;67803;41.330;69.282;2023-03-30T03:57:18;27.52;;;12.13;;
78346;SDS011;67803;41.330;69.282;2023-03-30T03:59:49;32.50;;;12.77;;
78346;SDS011;67803;41.330;69.282;2023-03-30T04:02:21;24.50;;;12.40;;
78346;SDS011;67803;41.330;69.282;2023-03-30T04:04:51;30.15;;;12.75;;
78346;SDS011;67803;41.330;69.282;2023-03-30T04:07:22;26.77;;;13.00;;
78346;SDS011;67803;41.330;69.282;2023-03-30T04:09:54;25.65;;;11.57;;
78346;SDS011;67803;41.330;69.282;2023-03-30T04:12:25;23.73;;;10.95;;
78346;SDS011;67803;41.330;69.282;2023-03-30T04:14:56;24.25;;;11.75;;
78346;SDS011;67803;41.330;69.282;2023-03-30T04:17:27;26.50;;;12.73;;
78346;SDS011;67803;41.330;69.282;2023-03-30T04:19:58;30.63;;;13.48;;
78346;SDS011;67803;41.330;69.282;2023-03-30T04:22:28;28.83;;;12.57;;
78346;SDS011;67803;41.330;69.282;2023-03-30T04:25:02;29.48;;;13.02;;
78346;SDS011;67803;41.330;69.282;2023-03-30T04:27:34;24.77;;;12.23;;
78346;SDS011;67803;41.330;69.282;2023-03-30T04:30:07;26.00;;;11.45;;
78346;SDS011;67803;41.330;69.282;2023-03-30T04:32:37;29.13;;;13.98;;
78346;SDS011;67803;41.330;69.282;2023-03-30T04:35:08;29.15;;;14.18;;
78346;SDS011;67803;41.330;69.282;2023-03-30T04:37:38;27.73;;;13.85;;
78346;SDS011;67803;41.330;69.282;2023-03-30T04:40:11;37.22;;;16.70;;
78346;SDS011;67803;41.330;69.282;2023-03-30T04:42:42;33.92;;;15.73;;
78346;SDS011;67803;41.330;69.282;2023-03-30T04:45:18;39.22;;;15.80;;
78346;SDS011;67803;41.330;69.282;2023-03-30T04:47:50;33.00;;;15.00;;
78346;SDS011;67803;41.330;69.282;2023-03-30T04:50:20;41.03;;;15.50;;
78346;SDS011;67803;41.330;69.282;2023-03-30T04:52:51;37.53;;;14.20;;
78346;SDS011;67803;41.330;69.282;2023-03-30T04:55:22;32.13;;;15.40;;
78346;SDS011;67803;41.330;69.282;2023-03-30T04:57:53;34.53;;;14.98;;
78346;SDS011;67803;41.330;69.282;2023-03-30T05:00:23;35.78;;;14.52;;
78346;SDS011;67803;41.330;69.282;2023-03-30T05:02:54;36.45;;;13.70;;
78346;SDS011;67803;41.330;69.282;2023-03-30T05:05:24;38.45;;;14.00;;
78346;SDS011;67803;41.330;69.282;2023-03-30T05:07:55;36.35;;;12.85;;
78346;SDS011;67803;41.330;69.282;2023-03-30T05:10:26;34.83;;;14.20;;
78346;SDS011;67803;41.330;69.282;2023-03-30T05:12:57;34.83;;;12.23;;
78346;SDS011;67803;41.330;69.282;2023-03-30T05:15:27;30.35;;;11.27;;
78346;SDS011;67803;41.330;69.282;2023-03-30T05:17:58;30.13;;;11.90;;
78346;SDS011;67803;41.330;69.282;2023-03-30T05:20:29;32.83;;;10.90;;
78346;SDS011;67803;41.330;69.282;2023-03-30T05:22:59;28.05;;;11.30;;
78346;SDS011;67803;41.330;69.282;2023-03-30T05:25:30;33.05;;;11.13;;
78346;SDS011;67803;41.330;69.282;2023-03-30T05:28:01;33.22;;;10.93;;
78346;SDS011;67803;41.330;69.282;2023-03-30T05:30:31;31.70;;;13.10;;
78346;SDS011;67803;41.330;69.282;2023-03-30T05:33:02;29.05;;;11.45;;
78346;SDS011;67803;41.330;69.282;2023-03-30T05:35:32;32.47;;;11.00;;
78346;SDS011;67803;41.330;69.282;2023-03-30T05:38:03;36.78;;;11.10;;
78346;SDS011;67803;41.330;69.282;2023-03-30T05:40:34;33.42;;;11.27;;
78346;SDS011;67803;41.330;69.282;2023-03-30T05:43:04;30.40;;;11.68;;
78346;SDS011;67803;41.330;69.282;2023-03-30T05:45:35;34.95;;;11.80;;
78346;SDS011;67803;41.330;69.282;2023-03-30T05:48:05;41.10;;;11.77;;
78346;SDS011;67803;41.330;69.282;2023-03-30T05:50:36;32.20;;;11.15;;
78346;SDS011;67803;41.330;69.282;2023-03-30T05:53:07;38.47;;;11.60;;
78346;SDS011;67803;41.330;69.282;2023-03-30T05:55:38;39.38;;;12.40;;
78346;SDS011;67803;41.330;69.282;2023-03-30T05:58:08;38.13;;;12.05;;
78346;SDS011;67803;41.330;69.282;2023-03-30T06:00:39;34.40;;;11.70;;
78346;SDS011;67803;41.330;69.282;2023-03-30T06:03:11;33.60;;;12.65;;
78346;SDS011;67803;41.330;69.282;2023-03-30T06:05:41;28.45;;;10.38;;
78346;SDS011;67803;41.330;69.282;2023-03-30T06:08:12;37.35;;;11.25;;
78346;SDS011;67803;41.330;69.282;2023-03-30T06:10:50;32.55;;;11.63;;
78346;SDS011;67803;41.330;69.282;2023-03-30T06:13:21;39.50;;;12.32;;
78346;SDS011;67803;41.330;69.282;2023-03-30T06:15:52;32.42;;;10.80;;
78346;SDS011;67803;41.330;69.282;2023-03-30T06:18:22;29.23;;;10.35;;
78346;SDS011;67803;41.330;69.282;2023-03-30T06:20:53;34.80;;;10.68;;
78346;SDS011;67803;41.330;69.282;2023-03-30T06:23:23;35.17;;;9.60;;
78346;SDS011;67803;41.330;69.282;2023-03-30T06:25:54;35.38;;;10.05;;
78346;SDS011;67803;41.330;69.282;2023-03-30T06:28:24;32.33;;;9.75;;
78346;SDS011;67803;41.330;69.282;2023-03-30T06:30:55;34.10;;;10.10;;
78346;SDS011;67803;41.330;69.282;2023-03-30T06:33:26;29.42;;;8.38;;
78346;SDS011;67803;41.330;69.282;2023-03-30T06:35:56;26.42;;;8.82;;
78346;SDS011;67803;41.330;69.282;2023-03-30T06:38:27;24.38;;;8.38;;
78346;SDS011;67803;41.330;69.282;2023-03-30T06:41:01;22.88;;;6.82;;
78346;SDS011;67803;41.330;69.282;2023-03-30T06:43:32;23.42;;;7.00;;
78346;SDS011;67803;41.330;69.282;2023-03-30T06:46:03;25.00;;;6.95;;
78346;SDS011;67803;41.330;69.282;2023-03-30T06:48:35;24.45;;;6.03;;
78346;SDS011;67803;41.330;69.282;2023-03-30T06:51:05;21.33;;;6.78;;
78346;SDS011;67803;41.330;69.282;2023-03-30T06:53:36;27.50;;;6.22;;
78346;SDS011;67803;41.330;69.282;2023-03-30T06:56:07;20.75;;;5.20;;
78346;SDS011;67803;41.330;69.282;2023-03-30T06:58:38;17.95;;;4.53;;
78346;SDS011;67803;41.330;69.282;2023-03-30T07:01:09;21.17;;;4.78;;
78346;SDS011;67803;41.330;69.282;2023-03-30T07:03:40;25.27;;;4.72;;
78346;SDS011;67803;41.330;69.282;2023-03-30T07:06:10;19.15;;;4.32;;
78346;SDS011;67803;41.330;69.282;2023-03-30T07:08:41;16.98;;;4.43;;
78346;SDS011;67803;41.330;69.282;2023-03-30T07:11:12;22.05;;;5.30;;
78346;SDS011;67803;41.330;69.282;2023-03-30T07:13:42;17.60;;;4.38;;
78346;SDS011;67803;41.330;69.282;2023-03-30T07:16:13;21.58;;;5.05;;
78346;SDS011;67803;41.330;69.282;2023-03-30T07:18:43;22.73;;;4.88;;
78346;SDS011;67803;41.330;69.282;2023-03-30T07:21:14;28.95;;;5.22;;
78346;SDS011;67803;41.330;69.282;2023-03-30T07:23:45;25.15;;;4.70;;
78346;SDS011;67803;41.330;69.282;2023-03-30T07:26:15;22.35;;;4.13;;
78346;SDS011;67803;41.330;69.282;2023-03-30T07:28:46;22.27;;;4.97;;
78346;SDS011;67803;41.330;69.282;2023-03-30T07:31:17;16.92;;;4.43;;
78346;SDS011;67803;41.330;69.282;2023-03-30T07:33:49;27.08;;;5.82;;
78346;SDS011;67803;41.330;69.282;2023-03-30T07:36:20;17.17;;;4.15;;
78346;SDS011;67803;41.330;69.282;2023-03-30T07:38:50;19.63;;;4.95;;
78346;SDS011;67803;41.330;69.282;2023-03-30T07:41:21;19.15;;;4.05;;
78346;SDS011;67803;41.330;69.282;2023-03-30T07:43:52;22.08;;;4.30;;
78346;SDS011;67803;41.330;69.282;2023-03-30T07:46:22;24.27;;;5.47;;
78346;SDS011;67803;41.330;69.282;2023-03-30T07:48:53;35.15;;;5.72;;
78346;SDS011;67803;41.330;69.282;2023-03-30T07:51:24;17.35;;;4.38;;
78346;SDS011;67803;41.330;69.282;2023-03-30T07:53:55;23.35;;;4.70;;
78346;SDS011;67803;41.330;69.282;2023-03-30T07:56:25;19.50;;;4.53;;
78346;SDS011;67803;41.330;69.282;2023-03-30T07:58:56;18.45;;;4.15;;
78346;SDS011;67803;41.330;69.282;2023-03-30T08:01:26;18.05;;;4.25;;
78346;SDS011;67803;41.330;69.282;2023-03-30T08:03:57;22.13;;;4.97;;
78346;SDS011;67803;41.330;69.282;2023-03-30T08:06:29;17.60;;;4.45;;
78346;SDS011;67803;41.330;69.282;2023-03-30T08:09:00;19.13;;;5.75;;
78346;SDS011;67803;41.330;69.282;2023-03-30T08:11:30;28.20;;;4.85;;
78346;SDS011;67803;41.330;69.282;2023-03-30T08:14:02;23.85;;;4.40;;
78346;SDS011;67803;41.330;69.282;2023-03-30T08:16:33;20.75;;;4.63;;
78346;SDS011;67803;41.330;69.282;2023-03-30T08:19:03;17.77;;;4.00;;
78346;SDS011;67803;41.330;69.282;2023-03-30T08:21:34;27.88;;;4.47;;
78346;SDS011;67803;41.330;69.282;2023-03-30T08:24:05;22.92;;;5.22;;
78346;SDS011;67803;41.330;69.282;2023-03-30T08:26:36;17.48;;;4.55;;
78346;SDS011;67803;41.330;69.282;2023-03-30T08:29:08;25.13;;;4.40;;
78346;SDS011;67803;41.330;69.282;2023-03-30T08:31:38;21.05;;;4.68;;
78346;SDS011;67803;41.330;69.282;2023-03-30T08:34:09;19.08;;;4.32;;
78346;SDS011;67803;41.330;69.282;2023-03-30T08:36:40;16.25;;;4.22;;
78346;SDS011;67803;41.330;69.282;2023-03-30T08:39:11;19.63;;;4.97;;
78346;SDS011;67803;41.330;69.282;2023-03-30T08:46:59;18.38;;;3.95;;
78346;SDS011;67803;41.330;69.282;2023-03-30T08:49:32;15.90;;;3.95;;
78346;SDS011;67803;41.330;69.282;2023-03-30T08:52:05;16.60;;;4.03;;
78346;SDS011;67803;41.330;69.282;2023-03-30T08:54:36;21.13;;;4.50;;
78346;SDS011;67803;41.330;69.282;2023-03-30T08:57:08;22.17;;;4.50;;
78346;SDS011;67803;41.330;69.282;2023-03-30T09:02:20;20.95;;;4.53;;
78346;SDS011;67803;41.330;69.282;2023-03-30T09:04:55;27.08;;;5.07;;
78346;SDS011;67803;41.330;69.282;2023-03-30T09:07:31;14.50;;;3.83;;
78346;SDS011;67803;41.330;69.282;2023-03-30T09:10:03;24.17;;;6.10;;
78346;SDS011;67803;41.330;69.282;2023-03-30T09:12:37;20.27;;;4.60;;
78346;SDS011;67803;41.330;69.282;2023-03-30T09:17:59;22.38;;;4.70;;
78346;SDS011;67803;41.330;69.282;2023-03-30T09:20:34;19.02;;;5.05;;
78346;SDS011;67803;41.330;69.282;2023-03-30T09:23:09;19.45;;;4.55;;
78346;SDS011;67803;41.330;69.282;2023-03-30T09:28:34;21.02;;;4.50;;
78346;SDS011;67803;41.330;69.282;2023-03-30T09:31:08;17.08;;;4.45;;
78346;SDS011;67803;41.330;69.282;2023-03-30T09:34:23;16.33;;;4.25;;
78346;SDS011;67803;41.330;69.282;2023-03-30T09:36:40;17.35;;;4.35;;
78346;SDS011;67803;41.330;69.282;2023-03-30T09:41:48;19.63;;;5.15;;
78346;SDS011;67803;41.330;69.282;2023-03-30T09:44:30;17.92;;;4.82;;
78346;SDS011;67803;41.330;69.282;2023-03-30T09:47:12;24.80;;;5.30;;
78346;SDS011;67803;41.330;69.282;2023-03-30T09:49:45;16.13;;;4.70;;
78346;SDS011;67803;41.330;69.282;2023-03-30T09:52:20;16.83;;;5.57;;
78346;SDS011;67803;41.330;69.282;2023-03-30T09:54:52;24.75;;;5.75;;
78346;SDS011;67803;41.330;69.282;2023-03-30T09:57:26;18.90;;;5.30;;
78346;SDS011;67803;41.330;69.282;2023-03-30T09:59:58;23.02;;;5.43;;
78346;SDS011;67803;41.330;69.282;2023-03-30T10:02:29;23.92;;;5.28;;
78346;SDS011;67803;41.330;69.282;2023-03-30T10:05:02;21.08;;;7.75;;
78346;SDS011;67803;41.330;69.282;2023-03-30T10:07:34;26.00;;;8.88;;
78346;SDS011;67803;41.330;69.282;2023-03-30T10:10:16;32.40;;;10.32;;
78346;SDS011;67803;41.330;69.282;2023-03-30T10:13:00;28.20;;;8.07;;
78346;SDS011;67803;41.330;69.282;2023-03-30T10:15:31;25.33;;;8.60;;
78346;SDS011;67803;41.330;69.282;2023-03-30T10:20:52;24.55;;;8.88;;
78346;SDS011;67803;41.330;69.282;2023-03-30T10:23:23;16.70;;;7.82;;
78346;SDS011;67803;41.330;69.282;2023-03-30T10:26:00;22.77;;;8.23;;
78346;SDS011;67803;41.330;69.282;2023-03-30T10:28:32;19.17;;;8.13;;
78346;SDS011;67803;41.330;69.282;2023-03-30T10:31:12;20.70;;;7.93;;
78346;SDS011;67803;41.330;69.282;2023-03-30T10:33:45;26.55;;;8.27;;
78346;SDS011;67803;41.330;69.282;2023-03-30T10:36:17;32.15;;;8.57;;
78346;SDS011;67803;41.330;69.282;2023-03-30T10:38:48;37.03;;;10.30;;
78346;SDS011;67803;41.330;69.282;2023-03-30T10:41:20;25.55;;;8.65;;
78346;SDS011;67803;41.330;69.282;2023-03-30T10:43:51;34.42;;;8.80;;
78346;SDS011;67803;41.330;69.282;2023-03-30T10:46:22;28.33;;;9.20;;
78346;SDS011;67803;41.330;69.282;2023-03-30T10:49:03;31.05;;;9.95;;
78346;SDS011;67803;41.330;69.282;2023-03-30T10:54:23;21.95;;;9.60;;
78346;SDS011;67803;41.330;69.282;2023-03-30T10:56:58;27.25;;;9.52;;
78346;SDS011;67803;41.330;69.282;2023-03-30T11:05:10;21.63;;;10.80;;
78346;SDS011;67803;41.330;69.282;2023-03-30T11:08:01;23.45;;;10.13;;
78346;SDS011;67803;41.330;69.282;2023-03-30T11:10:36;25.55;;;11.13;;
78346;SDS011;67803;41.330;69.282;2023-03-30T11:13:13;19.67;;;9.38;;
78346;SDS011;67803;41.330;69.282;2023-03-30T11:15:46;22.48;;;9.82;;
78346;SDS011;67803;41.330;69.282;2023-03-30T11:18:32;22.75;;;9.02;;
78346;SDS011;67803;41.330;69.282;2023-03-30T11:21:07;15.05;;;8.70;;
78346;SDS011;67803;41.330;69.282;2023-03-30T11:23:50;19.42;;;8.88;;
78346;SDS011;67803;41.330;69.282;2023-03-30T11:31:51;23.15;;;10.02;;
78346;SDS011;67803;41.330;69.282;2023-03-30T11:42:38;16.63;;;9.50;;
78346;SDS011;67803;41.330;69.282;2023-03-30T11:45:32;17.05;;;9.35;;
78346;SDS011;67803;41.330;69.282;2023-03-30T11:48:08;15.05;;;8.63;;
78346;SDS011;67803;41.330;69.282;2023-03-30T11:55:54;15.88;;;9.35;;
78346;SDS011;67803;41.330;69.282;2023-03-30T11:58:29;15.77;;;8.95;;
78346;SDS011;67803;41.330;69.282;2023-03-30T12:03:37;21.90;;;9.10;;
78346;SDS011;67803;41.330;69.282;2023-03-30T12:06:19;16.95;;;8.52;;
78346;SDS011;67803;41.330;69.282;2023-03-30T12:11:54;17.63;;;8.65;;
78346;SDS011;67803;41.330;69.282;2023-03-30T12:14:29;20.45;;;7.63;;
78346;SDS011;67803;41.330;69.282;2023-03-30T12:22:49;17.05;;;10.05;;
78346;SDS011;67803;41.330;69.282;2023-03-30T12:25:26;18.02;;;8.60;;
78346;SDS011;67803;41.330;69.282;2023-03-30T12:28:01;12.77;;;8.45;;
78346;SDS011;67803;41.330;69.282;2023-03-30T12:30:53;16.33;;;9.20;;
78346;SDS011;67803;41.330;69.282;2023-03-30T12:33:34;18.38;;;9.35;;
78346;SDS011;67803;41.330;69.282;2023-03-30T12:36:29;17.42;;;8.32;;
78346;SDS011;67803;41.330;69.282;2023-03-30T12:39:04;18.58;;;7.85;;
78346;SDS011;67803;41.330;69.282;2023-03-30T12:41:46;19.17;;;9.00;;
78346;SDS011;67803;41.330;69.282;2023-03-30T12:44:20;18.27;;;8.73;;
78346;SDS011;67803;41.330;69.282;2023-03-30T12:46:57;18.98;;;8.88;;
78346;SDS011;67803;41.330;69.282;2023-03-30T12:52:12;15.45;;;8.30;;
78346;SDS011;67803;41.330;69.282;2023-03-30T12:54:53;22.20;;;8.65;;
78346;SDS011;67803;41.330;69.282;2023-03-30T13:05:23;26.07;;;8.90;;
78346;SDS011;67803;41.330;69.282;2023-03-30T13:07:56;20.10;;;9.40;;
78346;SDS011;67803;41.330;69.282;2023-03-30T13:10:36;22.23;;;9.95;;
78346;SDS011;67803;41.330;69.282;2023-03-30T13:13:21;20.85;;;9.10;;
78346;SDS011;67803;41.330;69.282;2023-03-30T13:15:53;23.85;;;10.23;;
78346;SDS011;67803;41.330;69.282;2023-03-30T13:18:38;23.27;;;9.20;;
78346;SDS011;67803;41.330;69.282;2023-03-30T13:21:17;20.42;;;9.38;;
78346;SDS011;67803;41.330;69.282;2023-03-30T13:24:03;20.83;;;8.98;;
78346;SDS011;67803;41.330;69.282;2023-03-30T13:26:38;20.55;;;9.15;;
78346;SDS011;67803;41.330;69.282;2023-03-30T13:29:10;20.02;;;9.60;;
78346;SDS011;67803;41.330;69.282;2023-03-30T13:31:54;19.30;;;9.55;;
78346;SDS011;67803;41.330;69.282;2023-03-30T13:37:34;17.30;;;9.20;;
78346;SDS011;67803;41.330;69.282;2023-03-30T13:42:47;25.90;;;9.20;;
78346;SDS011;67803;41.330;69.282;2023-03-30T13:48:05;23.65;;;9.60;;
78346;SDS011;67803;41.330;69.282;2023-03-30T13:50:36;23.27;;;9.70;;
78346;SDS011;67803;41.330;69.282;2023-03-30T13:53:08;17.92;;;8.63;;
78346;SDS011;67803;41.330;69.282;2023-03-30T13:55:41;27.00;;;9.30;;
78346;SDS011;67803;41.330;69.282;2023-03-30T14:00:47;28.02;;;9.60;;
78346;SDS011;67803;41.330;69.282;2023-03-30T14:03:26;23.63;;;11.10;;
78346;SDS011;67803;41.330;69.282;2023-03-30T14:05:58;25.23;;;11.23;;
78346;SDS011;67803;41.330;69.282;2023-03-30T14:08:33;31.10;;;11.60;;
78346;SDS011;67803;41.330;69.282;2023-03-30T14:11:15;23.30;;;12.18;;
78346;SDS011;67803;41.330;69.282;2023-03-30T14:13:48;27.58;;;11.88;;
78346;SDS011;67803;41.330;69.282;2023-03-30T14:16:20;25.75;;;11.63;;
78346;SDS011;67803;41.330;69.282;2023-03-30T14:18:52;27.15;;;12.90;;
78346;SDS011;67803;41.330;69.282;2023-03-30T14:21:23;28.88;;;12.52;;
78346;SDS011;67803;41.330;69.282;2023-03-30T14:23:53;26.70;;;11.85;;
78346;SDS011;67803;41.330;69.282;2023-03-30T14:26:26;23.25;;;11.68;;
78346;SDS011;67803;41.330;69.282;2023-03-30T14:28:57;27.67;;;12.85;;
78346;SDS011;67803;41.330;69.282;2023-03-30T14:31:48;22.38;;;12.38;;
78346;SDS011;67803;41.330;69.282;2023-03-30T14:34:26;25.65;;;11.20;;
78346;SDS011;67803;41.330;69.282;2023-03-30T14:36:58;31.83;;;13.18;;
78346;SDS011;67803;41.330;69.282;2023-03-30T14:39:29;29.90;;;14.93;;
78346;SDS011;67803;41.330;69.282;2023-03-30T14:42:34;33.15;;;14.27;;
78346;SDS011;67803;41.330;69.282;2023-03-30T14:44:58;31.40;;;13.95;;
78346;SDS011;67803;41.330;69.282;2023-03-30T14:47:29;26.15;;;13.93;;
78346;SDS011;67803;41.330;69.282;2023-03-30T14:50:00;33.03;;;13.65;;
78346;SDS011;67803;41.330;69.282;2023-03-30T14:52:42;26.80;;;14.95;;
78346;SDS011;67803;41.330;69.282;2023-03-30T14:55:21;34.95;;;14.77;;
78346;SDS011;67803;41.330;69.282;2023-03-30T14:57:53;34.53;;;14.85;;
78346;SDS011;67803;41.330;69.282;2023-03-30T15:00:26;29.13;;;14.77;;
78346;SDS011;67803;41.330;69.282;2023-03-30T15:02:58;30.90;;;14.82;;
78346;SDS011;67803;41.330;69.282;2023-03-30T15:05:33;25.85;;;16.40;;
78346;SDS011;67803;41.330;69.282;2023-03-30T15:08:04;26.98;;;16.30;;
78346;SDS011;67803;41.330;69.282;2023-03-30T15:10:36;32.25;;;15.90;;
78346;SDS011;67803;41.330;69.282;2023-03-30T15:13:15;33.63;;;16.05;;
78346;SDS011;67803;41.330;69.282;2023-03-30T15:15:50;33.85;;;16.88;;
78346;SDS011;67803;41.330;69.282;2023-03-30T15:18:25;35.28;;;17.27;;
78346;SDS011;67803;41.330;69.282;2023-03-30T15:20:56;32.55;;;16.48;;
78346;SDS011;67803;41.330;69.282;2023-03-30T15:23:30;28.42;;;15.98;;
78346;SDS011;67803;41.330;69.282;2023-03-30T15:28:34;35.07;;;16.57;;
78346;SDS011;67803;41.330;69.282;2023-03-30T15:31:08;30.13;;;16.33;;
78346;SDS011;67803;41.330;69.282;2023-03-30T15:36:16;29.15;;;16.02;;
78346;SDS011;67803;41.330;69.282;2023-03-30T15:38:48;31.45;;;15.85;;
78346;SDS011;67803;41.330;69.282;2023-03-30T15:41:21;30.05;;;16.00;;
78346;SDS011;67803;41.330;69.282;2023-03-30T15:44:08;36.15;;;17.27;;
78346;SDS011;67803;41.330;69.282;2023-03-30T15:46:39;32.15;;;16.00;;
78346;SDS011;67803;41.330;69.282;2023-03-30T15:49:13;34.15;;;17.48;;
78346;SDS011;67803;41.330;69.282;2023-03-30T15:51:46;33.40;;;16.63;;
78346;SDS011;67803;41.330;69.282;2023-03-30T15:54:18;34.38;;;15.95;;
78346;SDS011;67803;41.330;69.282;2023-03-30T15:56:53;34.60;;;16.45;;
78346;SDS011;67803;41.330;69.282;2023-03-30T15:59:35;26.98;;;14.77;;
78346;SDS011;67803;41.330;69.282;2023-03-30T16:02:15;31.52;;;16.90;;
78346;SDS011;67803;41.330;69.282;2023-03-30T16:04:46;28.35;;;15.43;;
78346;SDS011;67803;41.330;69.282;2023-03-30T16:07:21;26.45;;;14.63;;
78346;SDS011;67803;41.330;69.282;2023-03-30T16:09:53;30.33;;;13.98;;
78346;SDS011;67803;41.330;69.282;2023-03-30T16:12:25;28.10;;;13.32;;
78346;SDS011;67803;41.330;69.282;2023-03-30T16:14:58;30.45;;;13.90;;
78346;SDS011;67803;41.330;69.282;2023-03-30T16:17:29;26.92;;;14.25;;
78346;SDS011;67803;41.330;69.282;2023-03-30T16:20:01;23.90;;;13.38;;
78346;SDS011;67803;41.330;69.282;2023-03-30T16:22:31;25.92;;;14.32;;
78346;SDS011;67803;41.330;69.282;2023-03-30T16:25:02;32.08;;;14.40;;
78346;SDS011;67803;41.330;69.282;2023-03-30T16:27:33;28.95;;;13.65;;
78346;SDS011;67803;41.330;69.282;2023-03-30T16:32:52;31.13;;;14.65;;
78346;SDS011;67803;41.330;69.282;2023-03-30T16:35:23;32.58;;;15.65;;
78346;SDS011;67803;41.330;69.282;2023-03-30T16:37:54;29.52;;;14.25;;
78346;SDS011;67803;41.330;69.282;2023-03-30T16:40:35;28.98;;;14.32;;
78346;SDS011;67803;41.330;69.282;2023-03-30T16:43:06;30.08;;;14.43;;
78346;SDS011;67803;41.330;69.282;2023-03-30T16:45:36;34.60;;;16.30;;
78346;SDS011;67803;41.330;69.282;2023-03-30T16:48:09;31.38;;;16.20;;
78346;SDS011;67803;41.330;69.282;2023-03-30T16:50:41;31.52;;;15.88;;
78346;SDS011;67803;41.330;69.282;2023-03-30T16:53:12;27.17;;;15.40;;
78346;SDS011;67803;41.330;69.282;2023-03-30T16:55:43;31.55;;;17.38;;
78346;SDS011;67803;41.330;69.282;2023-03-30T16:58:14;29.63;;;15.68;;
78346;SDS011;67803;41.330;69.282;2023-03-30T17:00:49;31.73;;;15.25;;
78346;SDS011;67803;41.330;69.282;2023-03-30T17:03:20;27.58;;;15.00;;
78346;SDS011;67803;41.330;69.282;2023-03-30T17:05:51;27.73;;;15.65;;
78346;SDS011;67803;41.330;69.282;2023-03-30T17:10:53;31.08;;;15.00;;
78346;SDS011;67803;41.330;69.282;2023-03-30T17:13:29;33.33;;;17.15;;
78346;SDS011;67803;41.330;69.282;2023-03-30T17:16:01;30.58;;;15.30;;
78346;SDS011;67803;41.330;69.282;2023-03-30T17:18:32;28.40;;;15.57;;
78346;SDS011;67803;41.330;69.282;2023-03-30T17:21:02;29.90;;;15.40;;
78346;SDS011;67803;41.330;69.282;2023-03-30T17:23:33;30.88;;;16.48;;
78346;SDS011;67803;41.330;69.282;2023-03-30T17:26:03;34.00;;;17.27;;
78346;SDS011;67803;41.330;69.282;2023-03-30T17:28:36;32.15;;;17.30;;
78346;SDS011;67803;41.330;69.282;2023-03-30T17:31:20;37.25;;;17.85;;
78346;SDS011;67803;41.330;69.282;2023-03-30T17:33:51;38.28;;;17.13;;
78346;SDS011;67803;41.330;69.282;2023-03-30T17:36:22;35.25;;;18.63;;
78346;SDS011;67803;41.330;69.282;2023-03-30T17:38:53;36.17;;;20.42;;
78346;SDS011;67803;41.330;69.282;2023-03-30T17:41:23;39.83;;;19.65;;
78346;SDS011;67803;41.330;69.282;2023-03-30T17:43:54;40.17;;;19.10;;
78346;SDS011;67803;41.330;69.282;2023-03-30T17:46:24;34.55;;;19.60;;
78346;SDS011;67803;41.330;69.282;2023-03-30T17:48:55;41.58;;;19.98;;
78346;SDS011;67803;41.330;69.282;2023-03-30T17:51:27;37.53;;;18.88;;
78346;SDS011;67803;41.330;69.282;2023-03-30T17:53:58;38.85;;;18.02;;
78346;SDS011;67803;41.330;69.282;2023-03-30T17:56:29;37.90;;;19.42;;
78346;SDS011;67803;41.330;69.282;2023-03-30T17:58:59;40.85;;;19.27;;
78346;SDS011;67803;41.330;69.282;2023-03-30T18:01:30;39.92;;;19.70;;
78346;SDS011;67803;41.330;69.282;2023-03-30T18:04:00;38.47;;;19.50;;
78346;SDS011;67803;41.330;69.282;2023-03-30T18:06:31;36.03;;;19.38;;
78346;SDS011;67803;41.330;69.282;2023-03-30T18:09:01;33.80;;;19.17;;
78346;SDS011;67803;41.330;69.282;2023-03-30T18:11:32;34.55;;;18.27;;
78346;SDS011;67803;41.330;69.282;2023-03-30T18:14:03;37.13;;;19.17;;
78346;SDS011;67803;41.330;69.282;2023-03-30T18:16:35;56.22;;;19.27;;
78346;SDS011;67803;41.330;69.282;2023-03-30T18:19:09;39.40;;;19.23;;
78346;SDS011;67803;41.330;69.282;2023-03-30T18:21:40;43.25;;;18.90;;
78346;SDS011;67803;41.330;69.282;2023-03-30T18:24:10;33.95;;;17.42;;
78346;SDS011;67803;41.330;69.282;2023-03-30T18:26:41;31.17;;;15.95;;
78346;SDS011;67803;41.330;69.282;2023-03-30T18:29:16;37.78;;;17.65;;
78346;SDS011;67803;41.330;69.282;2023-03-30T18:31:49;30.85;;;17.42;;
78346;SDS011;67803;41.330;69.282;2023-03-30T18:34:19;31.02;;;17.38;;
78346;SDS011;67803;41.330;69.282;2023-03-30T18:36:50;28.83;;;17.17;;
78346;SDS011;67803;41.330;69.282;2023-03-30T18:39:20;32.67;;;17.75;;
78346;SDS011;67803;41.330;69.282;2023-03-30T18:41:51;32.67;;;16.60;;
78346;SDS011;67803;41.330;69.282;2023-03-30T18:44:22;40.45;;;17.30;;
78346;SDS011;67803;41.330;69.282;2023-03-30T18:46:52;34.85;;;16.75;;
78346;SDS011;67803;41.330;69.282;2023-03-30T18:49:23;33.58;;;17.08;;
78346;SDS011;67803;41.330;69.282;2023-03-30T18:51:54;32.30;;;16.63;;
78346;SDS011;67803;41.330;69.282;2023-03-30T18:54:24;33.15;;;17.60;;
78346;SDS011;67803;41.330;69.282;2023-03-30T18:56:55;29.42;;;16.98;;
78346;SDS011;67803;41.330;69.282;2023-03-30T18:59:26;32.08;;;17.85;;
78346;SDS011;67803;41.330;69.282;2023-03-30T19:01:57;28.48;;;17.15;;
78346;SDS011;67803;41.330;69.282;2023-03-30T19:04:28;25.92;;;17.23;;
78346;SDS011;67803;41.330;69.282;2023-03-30T19:06:58;30.05;;;17.13;;
78346;SDS011;67803;41.330;69.282;2023-03-30T19:09:30;27.67;;;16.77;;
78346;SDS011;67803;41.330;69.282;2023-03-30T19:12:00;30.85;;;17.17;;
78346;SDS011;67803;41.330;69.282;2023-03-30T19:14:31;29.63;;;16.80;;
78346;SDS011;67803;41.330;69.282;2023-03-30T19:17:01;29.23;;;17.13;;
78346;SDS011;67803;41.330;69.282;2023-03-30T19:19:32;28.65;;;17.38;;
78346;SDS011;67803;41.330;69.282;2023-03-30T19:22:03;31.23;;;17.40;;
78346;SDS011;67803;41.330;69.282;2023-03-30T19:24:33;31.77;;;17.55;;
78346;SDS011;67803;41.330;69.282;2023-03-30T19:27:05;31.40;;;17.08;;
78346;SDS011;67803;41.330;69.282;2023-03-30T19:29:37;32.50;;;16.48;;